Time,TemperatureF,DewpointF,PressureIn,WindDirection,WindDirectionDegrees,WindSpeedMPH,WindSpeedGustMPH,Humidity,HourlyPrecipIn,Conditions,Clouds,dailyrainin,SoftwareType,DateUTC
2013-01-24 00:00:00,25.3,16.8,30.17,East,90,0.0,0.0,70,0.00,,,0.00,WUHU216HW,2013-01-24 05:00:00,
2013-01-24 00:05:00,25.3,16.8,30.18,East,90,0.0,0.0,70,0.00,,,0.00,WUHU216HW,2013-01-24 05:05:00,
2013-01-24 00:10:00,25.3,17.1,30.17,East,90,0.0,0.0,71,0.00,,,0.00,WUHU216HW,2013-01-24 05:10:00,
2013-01-24 00:15:00,25.3,17.1,30.16,East,90,0.0,0.0,71,0.00,,,0.00,WUHU216HW,2013-01-24 05:15:00,
2013-01-24 00:20:00,25.3,17.1,30.17,East,90,0.0,0.0,71,0.00,,,0.00,WUHU216HW,2013-01-24 05:20:00,
2013-01-24 00:25:00,25.3,17.5,30.16,East,90,0.0,0.0,72,0.00,,,0.00,WUHU216HW,2013-01-24 05:25:00,
2013-01-24 00:30:00,25.5,17.6,30.17,East,90,0.0,0.0,72,0.00,,,0.00,WUHU216HW,2013-01-24 05:30:00,
2013-01-24 00:35:00,25.7,17.8,30.16,East,90,0.0,0.0,72,0.00,,,0.00,WUHU216HW,2013-01-24 05:35:00,
2013-01-24 00:40:00,25.8,18.3,30.16,East,90,0.0,0.0,73,0.00,,,0.00,WUHU216HW,2013-01-24 05:40:00,
2013-01-24 00:45:00,26.2,18.6,30.16,East,90,0.0,0.0,73,0.00,,,0.00,WUHU216HW,2013-01-24 05:45:00,
2013-01-24 00:50:00,26.2,19.0,30.15,East,90,0.0,0.0,74,0.00,,,0.00,WUHU216HW,2013-01-24 05:50:00,
2013-01-24 00:55:00,26.6,19.3,30.15,East,90,0.0,0.0,74,0.00,,,0.00,WUHU216HW,2013-01-24 05:55:00,
2013-01-24 01:00:00,27.1,20.2,30.15,East,90,0.0,0.0,75,0.00,,,0.00,WUHU216HW,2013-01-24 06:00:00,
2013-01-24 01:05:00,27.3,20.3,30.15,East,90,0.0,0.0,75,0.00,,,0.00,WUHU216HW,2013-01-24 06:05:00,
2013-01-24 01:10:00,28.0,21.1,30.15,NNW,338,0.0,0.0,75,0.00,,,0.00,WUHU216HW,2013-01-24 06:10:00,
2013-01-24 01:15:00,29.1,22.7,30.14,NNW,338,0.0,0.0,77,0.00,,,0.00,WUHU216HW,2013-01-24 06:15:00,
2013-01-24 01:20:00,30.5,24.5,30.14,WNW,293,0.0,0.0,78,0.00,,,0.00,WUHU216HW,2013-01-24 06:20:00,
2013-01-24 01:26:00,31.8,25.7,30.14,North,0,0.0,0.0,78,0.00,,,0.00,WUHU216HW,2013-01-24 06:26:00,
2013-01-24 01:31:00,32.5,26.1,30.14,West,270,0.0,0.0,77,0.00,,,0.00,WUHU216HW,2013-01-24 06:31:00,
2013-01-24 01:36:00,33.6,27.0,30.14,NNW,338,0.0,0.0,77,0.00,,,0.00,WUHU216HW,2013-01-24 06:36:00,
2013-01-24 01:41:00,35.4,28.5,30.14,North,0,0.0,0.0,76,0.00,,,0.00,WUHU216HW,2013-01-24 06:41:00,
2013-01-24 01:46:00,36.1,28.9,30.14,NNW,338,0.0,0.0,75,0.00,,,0.00,WUHU216HW,2013-01-24 06:46:00,
2013-01-24 01:51:00,36.8,29.3,30.14,West,270,0.0,0.0,74,0.00,,,0.00,WUHU216HW,2013-01-24 06:51:00,
2013-01-24 01:56:00,37.9,30.0,30.14,NW,315,0.0,0.0,73,0.00,,,0.00,WUHU216HW,2013-01-24 06:56:00,
2013-01-24 02:01:00,38.4,30.2,30.14,NNW,338,3.3,3.3,72,0.00,,,0.00,WUHU216HW,2013-01-24 07:01:00,
2013-01-24 02:06:00,39.3,30.7,30.14,NW,315,0.0,3.3,71,0.00,,,0.00,WUHU216HW,2013-01-24 07:06:00,
2013-01-24 02:11:00,39.9,30.7,30.14,West,270,0.0,3.3,70,0.00,,,0.00,WUHU216HW,2013-01-24 07:11:00,
2013-01-24 02:16:00,40.2,30.5,30.14,NW,315,5.5,5.5,68,0.00,,,0.00,WUHU216HW,2013-01-24 07:16:00,
2013-01-24 02:21:00,40.8,31.0,30.14,NW,315,0.0,5.5,68,0.00,,,0.00,WUHU216HW,2013-01-24 07:21:00,
2013-01-24 02:26:00,41.3,30.8,30.14,NNW,338,5.1,5.5,66,0.00,,,0.00,WUHU216HW,2013-01-24 07:26:00,
2013-01-24 02:31:00,41.5,30.9,30.14,North,0,0.0,5.5,66,0.00,,,0.00,WUHU216HW,2013-01-24 07:31:00,
2013-01-24 02:36:00,41.5,30.6,30.14,NNW,338,2.0,5.1,65,0.00,,,0.00,WUHU216HW,2013-01-24 07:36:00,
2013-01-24 02:41:00,41.5,30.6,30.13,SSW,203,3.3,3.3,65,0.00,,,0.00,WUHU216HW,2013-01-24 07:41:00,
2013-01-24 02:46:00,41.7,30.7,30.14,NW,315,3.1,4.6,65,0.00,,,0.00,WUHU216HW,2013-01-24 07:46:00,
2013-01-24 02:51:00,41.9,30.9,30.14,WNW,293,2.2,5.3,65,0.00,,,0.00,WUHU216HW,2013-01-24 07:51:00,
2013-01-24 02:56:00,42.0,30.7,30.14,NNW,338,2.6,5.3,64,0.00,,,0.00,WUHU216HW,2013-01-24 07:56:00,
2013-01-24 03:01:00,42.0,30.7,30.14,North,0,2.2,2.6,64,0.00,,,0.00,WUHU216HW,2013-01-24 08:01:00,
2013-01-24 03:06:00,42.0,30.7,30.14,NNW,338,0.0,2.6,64,0.00,,,0.00,WUHU216HW,2013-01-24 08:06:00,
2013-01-24 03:11:00,42.0,30.7,30.14,NW,315,0.0,2.6,64,0.00,,,0.00,WUHU216HW,2013-01-24 08:11:00,
2013-01-24 03:16:00,42.0,30.7,30.14,NW,315,0.0,3.5,64,0.00,,,0.00,WUHU216HW,2013-01-24 08:16:00,
2013-01-24 03:21:00,42.0,30.7,30.14,NNW,338,4.6,4.6,64,0.00,,,0.00,WUHU216HW,2013-01-24 08:21:00,
2013-01-24 03:26:00,42.0,30.7,30.15,NW,315,6.2,6.2,64,0.00,,,0.00,WUHU216HW,2013-01-24 08:26:00,
2013-01-24 03:30:00,42.0,30.3,30.14,North,0,4.0,6.2,63,0.00,,,0.00,WUHU216HW,2013-01-24 08:30:00,
2013-01-24 03:36:00,42.0,30.3,30.14,NW,315,0.0,6.2,63,0.00,,,0.00,WUHU216HW,2013-01-24 08:36:00,
2013-01-24 03:43:00,42.0,30.3,30.14,NW,315,0.0,6.2,63,0.00,,,0.00,WUHU216HW,2013-01-24 08:43:00,
2013-01-24 03:54:00,42.0,29.8,30.14,NW,315,6.2,6.2,62,0.00,,,0.00,WUHU216HW,2013-01-24 08:54:00,
2013-01-24 04:03:00,41.7,29.6,30.15,NW,315,1.1,7.6,62,0.00,,,0.00,WUHU216HW,2013-01-24 09:03:00,
2013-01-24 04:08:00,41.7,29.6,30.14,North,0,2.6,7.6,62,0.00,,,0.00,WUHU216HW,2013-01-24 09:08:00,
2013-01-24 04:13:00,41.5,29.4,30.15,NNW,338,1.3,4.0,62,0.00,,,0.00,WUHU216HW,2013-01-24 09:13:00,
2013-01-24 04:18:00,41.3,28.9,30.15,WNW,293,0.0,8.7,61,0.00,,,0.00,WUHU216HW,2013-01-24 09:18:00,
2013-01-24 04:23:00,41.1,28.7,30.15,WNW,293,4.9,8.7,61,0.00,,,0.00,WUHU216HW,2013-01-24 09:23:00,
2013-01-24 04:28:00,41.0,28.5,30.16,West,270,0.0,4.9,61,0.00,,,0.00,WUHU216HW,2013-01-24 09:28:00,
2013-01-24 04:33:00,40.8,28.4,30.15,NNW,338,0.0,4.6,61,0.00,,,0.00,WUHU216HW,2013-01-24 09:33:00,
2013-01-24 04:38:00,40.6,28.2,30.15,NNW,338,2.9,2.9,61,0.00,,,0.00,WUHU216HW,2013-01-24 09:38:00,
2013-01-24 04:43:00,40.1,28.0,30.16,NW,315,4.2,4.2,62,0.00,,,0.00,WUHU216HW,2013-01-24 09:43:00,
2013-01-24 04:48:00,39.9,28.2,30.16,NNW,338,4.0,4.2,63,0.00,,,0.00,WUHU216HW,2013-01-24 09:48:00,
2013-01-24 04:53:00,39.7,28.0,30.16,NNW,338,6.9,6.9,63,0.00,,,0.00,WUHU216HW,2013-01-24 09:53:00,
2013-01-24 04:58:00,39.3,28.1,30.16,NW,315,4.0,6.9,64,0.00,,,0.00,WUHU216HW,2013-01-24 09:58:00,
2013-01-24 05:03:00,39.3,28.1,30.16,NNW,338,1.1,6.4,64,0.00,,,0.00,WUHU216HW,2013-01-24 10:03:00,
2013-01-24 05:08:00,39.3,28.1,30.17,NNW,338,0.0,6.4,64,0.00,,,0.00,WUHU216HW,2013-01-24 10:08:00,
2013-01-24 05:13:00,39.0,27.3,30.17,NNW,338,5.8,6.4,63,0.00,,,0.00,WUHU216HW,2013-01-24 10:13:00,
2013-01-24 05:18:00,39.0,27.3,30.17,NNW,338,0.0,5.8,63,0.00,,,0.00,WUHU216HW,2013-01-24 10:18:00,
2013-01-24 05:23:00,38.8,27.6,30.17,West,270,6.0,6.0,64,0.00,,,0.00,WUHU216HW,2013-01-24 10:23:00,
2013-01-24 05:28:00,38.8,27.6,30.18,NNW,338,1.5,6.0,64,0.00,,,0.00,WUHU216HW,2013-01-24 10:28:00,
2013-01-24 05:33:00,38.8,27.9,30.18,North,0,4.4,4.4,65,0.00,,,0.00,WUHU216HW,2013-01-24 10:33:00,
2013-01-24 05:38:00,38.4,28.0,30.18,North,0,0.0,4.4,66,0.00,,,0.00,WUHU216HW,2013-01-24 10:38:00,
2013-01-24 05:43:00,38.1,27.7,30.18,North,0,0.0,0.0,66,0.00,,,0.00,WUHU216HW,2013-01-24 10:43:00,
2013-01-24 05:48:00,37.9,27.5,30.19,NNW,338,2.2,4.6,66,0.00,,,0.00,WUHU216HW,2013-01-24 10:48:00,
2013-01-24 05:53:00,37.5,27.2,30.19,NNW,338,0.0,4.6,66,0.00,,,0.00,WUHU216HW,2013-01-24 10:53:00,
2013-01-24 05:58:00,37.2,26.8,30.18,NW,315,4.4,4.6,66,0.00,,,0.00,WUHU216HW,2013-01-24 10:58:00,
2013-01-24 06:03:00,37.0,26.7,30.19,North,0,0.0,4.6,66,0.00,,,0.00,WUHU216HW,2013-01-24 11:03:00,
2013-01-24 06:08:00,36.6,26.3,30.19,NW,315,0.0,4.4,66,0.00,,,0.00,WUHU216HW,2013-01-24 11:08:00,
2013-01-24 06:13:00,36.3,26.3,30.20,NW,315,0.0,1.5,67,0.00,,,0.00,WUHU216HW,2013-01-24 11:13:00,
2013-01-24 06:18:00,36.1,26.2,30.20,NW,315,2.0,2.0,67,0.00,,,0.00,WUHU216HW,2013-01-24 11:18:00,
2013-01-24 06:23:00,35.9,26.0,30.20,NNW,338,4.9,4.9,67,0.00,,,0.00,WUHU216HW,2013-01-24 11:23:00,
2013-01-24 06:28:00,35.7,25.8,30.21,West,270,12.0,12.0,67,0.00,,,0.00,WUHU216HW,2013-01-24 11:28:00,
2013-01-24 06:33:00,35.6,25.7,30.21,NNW,338,4.6,12.0,67,0.00,,,0.00,WUHU216HW,2013-01-24 11:33:00,
2013-01-24 06:38:00,35.4,25.5,30.22,NNW,338,10.0,12.0,67,0.00,,,0.00,WUHU216HW,2013-01-24 11:38:00,
2013-01-24 06:43:00,35.2,25.3,30.22,NNW,338,3.1,10.0,67,0.00,,,0.00,WUHU216HW,2013-01-24 11:43:00,
2013-01-24 06:48:00,34.8,24.9,30.22,North,0,0.0,10.0,67,0.00,,,0.00,WUHU216HW,2013-01-24 11:48:00,
2013-01-24 06:53:00,34.5,24.2,30.22,NNW,338,0.0,2.0,66,0.00,,,0.00,WUHU216HW,2013-01-24 11:53:00,
2013-01-24 06:58:00,34.3,24.0,30.23,North,0,5.1,5.1,66,0.00,,,0.00,WUHU216HW,2013-01-24 11:58:00,
2013-01-24 07:03:00,34.1,24.0,30.22,NNW,338,2.6,8.5,66,0.00,,,0.00,WUHU216HW,2013-01-24 12:03:00,
2013-01-24 07:08:00,33.9,23.7,30.23,NW,315,2.6,8.5,66,0.00,,,0.00,WUHU216HW,2013-01-24 12:08:00,
2013-01-24 07:13:00,33.6,23.3,30.24,NNW,338,0.0,6.2,66,0.00,,,0.00,WUHU216HW,2013-01-24 12:13:00,
2013-01-24 07:18:00,33.2,22.6,30.24,NNW,338,6.9,6.9,65,0.00,,,0.00,WUHU216HW,2013-01-24 12:18:00,
2013-01-24 07:23:00,32.9,22.3,30.24,NNW,338,8.5,8.5,65,0.00,,,0.00,WUHU216HW,2013-01-24 12:23:00,
2013-01-24 07:28:00,32.7,21.8,30.24,NW,315,0.0,8.5,64,0.00,,,0.00,WUHU216HW,2013-01-24 12:28:00,
2013-01-24 07:33:00,32.5,21.6,30.24,NNW,338,3.5,8.5,64,0.00,,,0.00,WUHU216HW,2013-01-24 12:33:00,
2013-01-24 07:38:00,32.3,21.1,30.25,NNW,338,0.0,3.5,63,0.00,,,0.00,WUHU216HW,2013-01-24 12:38:00,
2013-01-24 07:43:00,32.3,21.1,30.25,NNW,338,3.5,4.9,63,0.00,,,0.00,WUHU216HW,2013-01-24 12:43:00,
2013-01-24 07:48:00,32.1,20.6,30.25,North,0,0.0,4.9,62,0.00,,,0.00,WUHU216HW,2013-01-24 12:48:00,
2013-01-24 07:53:00,31.8,20.3,30.25,NNW,338,3.8,4.0,62,0.00,,,0.00,WUHU216HW,2013-01-24 12:53:00,
2013-01-24 07:58:00,31.8,19.9,30.25,NNW,338,4.4,4.4,61,0.00,,,0.00,WUHU216HW,2013-01-24 12:58:00,
2013-01-24 08:03:00,31.6,19.7,30.27,WNW,293,13.4,13.4,61,0.00,,,0.00,WUHU216HW,2013-01-24 13:03:00,
2013-01-24 08:08:00,31.6,19.7,30.27,WNW,293,10.9,13.4,61,0.00,,,0.00,WUHU216HW,2013-01-24 13:08:00,
2013-01-24 08:13:00,31.2,19.4,30.27,NNW,338,3.8,13.4,61,0.00,,,0.00,WUHU216HW,2013-01-24 13:13:00,
2013-01-24 08:18:00,31.2,19.4,30.27,North,0,4.4,10.9,61,0.00,,,0.00,WUHU216HW,2013-01-24 13:18:00,
2013-01-24 08:23:00,31.1,18.8,30.27,NNW,338,6.2,6.2,60,0.00,,,0.00,WUHU216HW,2013-01-24 13:23:00,
2013-01-24 08:28:00,30.9,18.6,30.27,NW,315,11.8,11.8,60,0.00,,,0.00,WUHU216HW,2013-01-24 13:28:00,
2013-01-24 08:33:00,30.9,17.8,30.27,NNW,338,13.6,13.6,58,0.00,,,0.00,WUHU216HW,2013-01-24 13:33:00,
2013-01-24 08:38:00,30.7,17.2,30.28,NNW,338,0.0,13.6,57,0.00,,,0.00,WUHU216HW,2013-01-24 13:38:00,
2013-01-24 08:43:00,30.5,16.6,30.28,NNW,338,3.8,13.6,56,0.00,,,0.00,WUHU216HW,2013-01-24 13:43:00,
2013-01-24 08:48:00,30.5,16.2,30.29,NNW,338,4.2,10.5,55,0.00,,,0.00,WUHU216HW,2013-01-24 13:48:00,
2013-01-24 08:53:00,30.5,16.2,30.29,NNW,338,5.8,10.5,55,0.00,,,0.00,WUHU216HW,2013-01-24 13:53:00,
2013-01-24 08:58:00,30.5,16.2,30.29,North,0,0.4,5.8,55,0.00,,,0.00,WUHU216HW,2013-01-24 13:58:00,
2013-01-24 09:03:00,30.7,15.9,30.29,NW,315,5.1,8.7,54,0.00,,,0.00,WUHU216HW,2013-01-24 14:03:00,
2013-01-24 09:08:00,30.7,16.3,30.29,NNW,338,8.0,8.7,55,0.00,,,0.00,WUHU216HW,2013-01-24 14:08:00,
2013-01-24 09:13:00,30.9,16.5,30.30,NNW,338,3.5,8.0,55,0.00,,,0.00,WUHU216HW,2013-01-24 14:13:00,
2013-01-24 09:18:00,30.9,16.5,30.31,NNW,338,4.6,8.0,55,0.00,,,0.00,WUHU216HW,2013-01-24 14:18:00,
2013-01-24 09:23:00,31.1,16.7,30.30,NNW,338,2.9,5.5,55,0.00,,,0.00,WUHU216HW,2013-01-24 14:23:00,
2013-01-24 09:28:00,31.1,16.7,30.29,NW,315,2.9,5.1,55,0.00,,,0.00,WUHU216HW,2013-01-24 14:28:00,
2013-01-24 09:34:00,31.2,17.3,30.30,WNW,293,4.9,6.2,56,0.00,,,0.00,WUHU216HW,2013-01-24 14:34:00,
2013-01-24 09:39:00,31.6,17.6,30.30,NW,315,7.8,9.6,56,0.00,,,0.00,WUHU216HW,2013-01-24 14:39:00,
2013-01-24 09:44:00,31.6,17.6,30.31,NNW,338,3.8,9.6,56,0.00,,,0.00,WUHU216HW,2013-01-24 14:44:00,
2013-01-24 09:49:00,31.8,17.8,30.32,NNW,338,4.4,7.8,56,0.00,,,0.00,WUHU216HW,2013-01-24 14:49:00,
2013-01-24 09:54:00,32.1,18.6,30.32,NNW,338,0.0,5.1,57,0.00,,,0.00,WUHU216HW,2013-01-24 14:54:00,
2013-01-24 09:59:00,32.1,18.6,30.31,NNW,338,0.0,4.4,57,0.00,,,0.00,WUHU216HW,2013-01-24 14:59:00,
2013-01-24 10:04:00,32.5,18.5,30.31,North,0,7.3,7.3,56,0.00,,,0.00,WUHU216HW,2013-01-24 15:04:00,
2013-01-24 10:09:00,32.7,18.6,30.32,North,0,4.9,7.3,56,0.00,,,0.00,WUHU216HW,2013-01-24 15:09:00,
2013-01-24 10:14:00,32.7,18.6,30.32,NNW,338,0.0,7.3,56,0.00,,,0.00,WUHU216HW,2013-01-24 15:14:00,
2013-01-24 10:19:00,32.7,18.2,30.32,NNW,338,0.0,5.1,55,0.00,,,0.00,WUHU216HW,2013-01-24 15:19:00,
2013-01-24 10:24:00,32.7,18.6,30.32,NW,315,4.6,5.1,56,0.00,,,0.00,WUHU216HW,2013-01-24 15:24:00,
2013-01-24 10:29:00,32.9,18.4,30.32,North,0,0.0,4.6,55,0.00,,,0.00,WUHU216HW,2013-01-24 15:29:00,
2013-01-24 10:34:00,33.2,18.7,30.32,North,0,0.0,6.7,55,0.00,,,0.00,WUHU216HW,2013-01-24 15:34:00,
2013-01-24 10:39:00,33.0,18.5,30.33,NW,315,0.0,6.7,55,0.00,,,0.00,WUHU216HW,2013-01-24 15:39:00,
2013-01-24 10:44:00,33.0,18.1,30.34,NNW,338,5.5,11.1,54,0.00,,,0.00,WUHU216HW,2013-01-24 15:44:00,
2013-01-24 10:49:00,32.7,17.3,30.34,North,0,2.6,11.1,53,0.00,,,0.00,WUHU216HW,2013-01-24 15:49:00,
2013-01-24 10:54:00,32.7,16.9,30.34,West,270,7.1,7.8,52,0.00,,,0.00,WUHU216HW,2013-01-24 15:54:00,
2013-01-24 10:59:00,32.7,16.5,30.35,West,270,0.0,7.1,51,0.00,,,0.00,WUHU216HW,2013-01-24 15:59:00,
2013-01-24 11:04:00,32.5,15.9,30.35,WSW,248,0.0,7.1,50,0.00,,,0.00,WUHU216HW,2013-01-24 16:04:00,
2013-01-24 11:09:00,32.5,15.4,30.35,NW,315,8.9,8.9,49,0.00,,,0.00,WUHU216HW,2013-01-24 16:09:00,
2013-01-24 11:14:00,32.7,15.5,30.35,North,0,0.0,8.9,49,0.00,,,0.00,WUHU216HW,2013-01-24 16:14:00,
2013-01-24 11:19:00,32.7,15.0,30.36,NNW,338,5.5,8.9,48,0.00,,,0.00,WUHU216HW,2013-01-24 16:19:00,
2013-01-24 11:24:00,32.7,15.0,30.36,NW,315,4.4,5.5,48,0.00,,,0.00,WUHU216HW,2013-01-24 16:24:00,
2013-01-24 11:29:00,32.7,14.5,30.36,NNW,338,0.0,6.2,47,0.00,,,0.00,WUHU216HW,2013-01-24 16:29:00,
2013-01-24 11:34:00,33.0,15.4,30.37,WNW,293,6.7,6.9,48,0.00,,,0.00,WUHU216HW,2013-01-24 16:34:00,
2013-01-24 11:39:00,33.0,15.4,30.37,NW,315,6.2,6.9,48,0.00,,,0.00,WUHU216HW,2013-01-24 16:39:00,
2013-01-24 11:44:00,33.2,15.5,30.37,NW,315,0.0,9.8,48,0.00,,,0.00,WUHU216HW,2013-01-24 16:44:00,
2013-01-24 11:49:00,33.6,16.3,30.37,NNW,338,0.0,9.8,49,0.00,,,0.00,WUHU216HW,2013-01-24 16:49:00,
2013-01-24 11:54:00,34.1,16.8,30.37,NNW,338,5.8,5.8,49,0.00,,,0.00,WUHU216HW,2013-01-24 16:54:00,
2013-01-24 11:59:00,34.3,17.0,30.38,North,0,7.3,7.3,49,0.00,,,0.00,WUHU216HW,2013-01-24 16:59:00,
2013-01-24 12:04:00,34.3,17.0,30.38,NNW,338,0.0,7.3,49,0.00,,,0.00,WUHU216HW,2013-01-24 17:04:00,
2013-01-24 12:09:00,34.3,16.0,30.37,NW,315,0.0,0.0,47,0.00,,,0.00,WUHU216HW,2013-01-24 17:09:00,
2013-01-24 12:14:00,34.3,16.0,30.38,WNW,293,16.1,16.1,47,0.00,,,0.00,WUHU216HW,2013-01-24 17:14:00,
2013-01-24 12:19:00,33.9,15.7,30.38,NNW,338,6.0,16.1,47,0.00,,,0.00,WUHU216HW,2013-01-24 17:19:00,
2013-01-24 12:24:00,34.1,15.8,30.38,NNW,338,0.0,10.0,47,0.00,,,0.00,WUHU216HW,2013-01-24 17:24:00,
2013-01-24 12:29:00,33.9,15.7,30.39,WNW,293,4.2,7.1,47,0.00,,,0.00,WUHU216HW,2013-01-24 17:29:00,
2013-01-24 12:34:00,34.1,15.8,30.38,NNW,338,0.0,7.1,47,0.00,,,0.00,WUHU216HW,2013-01-24 17:34:00,
2013-01-24 12:39:00,34.3,16.0,30.38,North,0,6.2,6.2,47,0.00,,,0.00,WUHU216HW,2013-01-24 17:39:00,
2013-01-24 12:44:00,34.3,15.5,30.38,NW,315,0.0,6.2,46,0.00,,,0.00,WUHU216HW,2013-01-24 17:44:00,
2013-01-24 12:49:00,34.3,15.5,30.38,NNW,338,0.0,6.2,46,0.00,,,0.00,WUHU216HW,2013-01-24 17:49:00,
2013-01-24 12:54:00,34.3,15.5,30.39,NNW,338,0.0,8.5,46,0.00,,,0.00,WUHU216HW,2013-01-24 17:54:00,
2013-01-24 12:59:00,34.1,14.8,30.38,North,0,8.7,9.3,45,0.00,,,0.00,WUHU216HW,2013-01-24 17:59:00,
2013-01-24 13:04:00,33.6,13.8,30.38,NW,315,6.7,9.3,44,0.00,,,0.00,WUHU216HW,2013-01-24 18:04:00,
2013-01-24 13:09:00,33.6,13.8,30.38,WNW,293,4.6,6.9,44,0.00,,,0.00,WUHU216HW,2013-01-24 18:09:00,
2013-01-24 13:14:00,33.4,13.2,30.38,NW,315,5.1,11.4,43,0.00,,,0.00,WUHU216HW,2013-01-24 18:14:00,
2013-01-24 13:19:00,33.0,12.3,30.38,NW,315,0.0,11.4,42,0.00,,,0.00,WUHU216HW,2013-01-24 18:19:00,
2013-01-24 13:24:00,33.2,13.0,30.38,NW,315,6.2,6.2,43,0.00,,,0.00,WUHU216HW,2013-01-24 18:24:00,
2013-01-24 13:29:00,33.0,12.8,30.38,NW,315,0.0,6.2,43,0.00,,,0.00,WUHU216HW,2013-01-24 18:29:00,
2013-01-24 13:34:00,33.6,13.8,30.38,NW,315,2.2,6.2,44,0.00,,,0.00,WUHU216HW,2013-01-24 18:34:00,
2013-01-24 13:39:00,33.8,14.0,30.38,NNE,23,0.0,2.2,44,0.00,,,0.00,WUHU216HW,2013-01-24 18:39:00,
2013-01-24 13:44:00,33.9,13.6,30.38,NNE,23,0.0,2.2,43,0.00,,,0.00,WUHU216HW,2013-01-24 18:44:00,
2013-01-24 13:49:00,33.9,13.6,30.39,NNW,338,0.0,0.0,43,0.00,,,0.00,WUHU216HW,2013-01-24 18:49:00,
2013-01-24 13:54:00,33.9,13.1,30.38,NNW,338,12.3,12.3,42,0.00,,,0.00,WUHU216HW,2013-01-24 18:54:00,
2013-01-24 13:59:00,33.8,12.5,30.38,NW,315,6.2,12.3,41,0.00,,,0.00,WUHU216HW,2013-01-24 18:59:00,
2013-01-24 14:04:00,33.6,12.3,30.38,NW,315,0.0,8.2,41,0.00,,,0.00,WUHU216HW,2013-01-24 19:04:00,
2013-01-24 14:09:00,33.6,12.3,30.38,NNW,338,5.3,8.2,41,0.00,,,0.00,WUHU216HW,2013-01-24 19:09:00,
2013-01-24 14:14:00,33.4,12.2,30.38,NW,315,6.9,6.9,41,0.00,,,0.00,WUHU216HW,2013-01-24 19:14:00,
2013-01-24 14:19:00,33.4,11.6,30.38,NW,315,0.0,7.1,40,0.00,,,0.00,WUHU216HW,2013-01-24 19:19:00,
2013-01-24 14:24:00,33.2,10.9,30.38,NNW,338,2.0,7.1,39,0.00,,,0.00,WUHU216HW,2013-01-24 19:24:00,
2013-01-24 14:29:00,33.0,10.7,30.39,NNE,23,6.0,6.0,39,0.00,,,0.00,WUHU216HW,2013-01-24 19:29:00,
2013-01-24 14:34:00,32.9,10.5,30.39,NNW,338,7.1,14.9,39,0.00,,,0.00,WUHU216HW,2013-01-24 19:34:00,
2013-01-24 14:39:00,32.9,10.5,30.38,NW,315,4.4,14.9,39,0.00,,,0.00,WUHU216HW,2013-01-24 19:39:00,
2013-01-24 14:44:00,32.9,10.5,30.39,NW,315,0.0,7.1,39,0.00,,,0.00,WUHU216HW,2013-01-24 19:44:00,
2013-01-24 14:49:00,32.9,11.2,30.39,North,0,9.6,9.6,40,0.00,,,0.00,WUHU216HW,2013-01-24 19:49:00,
2013-01-24 14:54:00,32.9,11.2,30.39,North,0,0.0,9.6,40,0.00,,,0.00,WUHU216HW,2013-01-24 19:54:00,
2013-01-24 14:59:00,33.0,11.3,30.39,NW,315,0.0,9.6,40,0.00,,,0.00,WUHU216HW,2013-01-24 19:59:00,
2013-01-24 15:04:00,33.0,11.3,30.39,NNW,338,6.4,6.7,40,0.00,,,0.00,WUHU216HW,2013-01-24 20:04:00,
2013-01-24 15:09:00,33.2,12.0,30.39,NW,315,0.0,6.7,41,0.00,,,0.00,WUHU216HW,2013-01-24 20:09:00,
2013-01-24 15:14:00,33.2,12.0,30.39,NNW,338,3.8,6.7,41,0.00,,,0.00,WUHU216HW,2013-01-24 20:14:00,
2013-01-24 15:19:00,33.4,11.6,30.40,NW,315,5.1,6.7,40,0.00,,,0.00,WUHU216HW,2013-01-24 20:19:00,
2013-01-24 15:24:00,33.0,10.1,30.40,NNW,338,6.4,6.9,38,0.00,,,0.00,WUHU216HW,2013-01-24 20:24:00,
2013-01-24 15:29:00,32.9,9.9,30.40,NW,315,0.0,6.9,38,0.00,,,0.00,WUHU216HW,2013-01-24 20:29:00,
2013-01-24 15:34:00,32.9,9.9,30.40,WNW,293,0.0,6.4,38,0.00,,,0.00,WUHU216HW,2013-01-24 20:34:00,
2013-01-24 15:39:00,32.7,9.7,30.41,NNW,338,0.0,0.0,38,0.00,,,0.00,WUHU216HW,2013-01-24 20:39:00,
2013-01-24 15:44:00,32.7,9.7,30.40,WNW,293,0.0,1.5,38,0.00,,,0.00,WUHU216HW,2013-01-24 20:44:00,
2013-01-24 15:49:00,32.7,9.7,30.41,North,0,2.6,2.6,38,0.00,,,0.00,WUHU216HW,2013-01-24 20:49:00,
2013-01-24 15:54:00,32.7,8.9,30.40,NNW,338,0.0,4.2,37,0.00,,,0.00,WUHU216HW,2013-01-24 20:54:00,
2013-01-24 15:59:00,32.5,9.6,30.41,NNE,23,5.8,5.8,38,0.00,,,0.00,WUHU216HW,2013-01-24 20:59:00,
2013-01-24 16:04:00,32.5,8.9,30.40,NNW,338,0.0,5.8,37,0.00,,,0.00,WUHU216HW,2013-01-24 21:04:00,
2013-01-24 16:09:00,32.5,8.9,30.40,NW,315,2.6,5.8,37,0.00,,,0.00,WUHU216HW,2013-01-24 21:09:00,
2013-01-24 16:14:00,32.1,8.6,30.40,NW,315,0.0,2.6,37,0.00,,,0.00,WUHU216HW,2013-01-24 21:14:00,
2013-01-24 16:19:00,32.1,8.6,30.41,NW,315,4.2,4.2,37,0.00,,,0.00,WUHU216HW,2013-01-24 21:19:00,
2013-01-24 16:24:00,32.1,8.6,30.41,NNW,338,6.0,6.0,37,0.00,,,0.00,WUHU216HW,2013-01-24 21:24:00,
2013-01-24 16:29:00,32.1,8.6,30.42,NNW,338,0.0,6.0,37,0.00,,,0.00,WUHU216HW,2013-01-24 21:29:00,
2013-01-24 16:34:00,32.1,8.0,30.42,NW,315,0.0,6.0,36,0.00,,,0.00,WUHU216HW,2013-01-24 21:34:00,
2013-01-24 16:39:00,32.1,8.5,30.42,NNW,338,0.0,0.0,37,0.00,,,0.00,WUHU216HW,2013-01-24 21:39:00,
2013-01-24 16:44:00,31.8,8.3,30.42,NW,315,0.0,0.4,37,0.00,,,0.00,WUHU216HW,2013-01-24 21:44:00,
2013-01-24 16:49:00,31.8,8.3,30.42,NNW,338,0.0,0.4,37,0.00,,,0.00,WUHU216HW,2013-01-24 21:49:00,
2013-01-24 16:54:00,31.8,8.3,30.42,NNW,338,0.0,0.0,37,0.00,,,0.00,WUHU216HW,2013-01-24 21:54:00,
2013-01-24 16:59:00,31.8,8.3,30.42,NNW,338,0.0,0.0,37,0.00,,,0.00,WUHU216HW,2013-01-24 21:59:00,
2013-01-24 17:04:00,31.8,8.3,30.42,NNW,338,0.0,0.0,37,0.00,,,0.00,WUHU216HW,2013-01-24 22:04:00,
2013-01-24 17:09:00,31.6,8.1,30.42,WNW,293,0.0,0.0,37,0.00,,,0.00,WUHU216HW,2013-01-24 22:09:00,
2013-01-24 17:14:00,31.6,8.1,30.42,West,270,0.0,0.0,37,0.00,,,0.00,WUHU216HW,2013-01-24 22:14:00,
2013-01-24 17:19:00,31.2,7.8,30.42,NW,315,0.0,0.0,37,0.00,,,0.00,WUHU216HW,2013-01-24 22:19:00,
2013-01-24 17:24:00,31.1,7.7,30.42,NW,315,0.0,4.9,37,0.00,,,0.00,WUHU216HW,2013-01-24 22:24:00,
2013-01-24 17:29:00,30.9,7.5,30.42,NNW,338,0.0,4.9,37,0.00,,,0.00,WUHU216HW,2013-01-24 22:29:00,
2013-01-24 17:35:00,30.7,8.0,30.43,NW,315,0.0,0.0,38,0.00,,,0.00,WUHU216HW,2013-01-24 22:35:00,
2013-01-24 17:40:00,30.3,7.6,30.43,West,270,0.0,0.0,38,0.00,,,0.00,WUHU216HW,2013-01-24 22:40:00,
2013-01-24 17:45:00,30.2,7.5,30.43,West,270,0.0,0.0,38,0.00,,,0.00,WUHU216HW,2013-01-24 22:45:00,
2013-01-24 17:50:00,30.0,7.3,30.44,West,270,0.0,0.0,38,0.00,,,0.00,WUHU216HW,2013-01-24 22:50:00,
2013-01-24 17:55:00,29.8,7.8,30.44,West,270,0.0,0.0,39,0.00,,,0.00,WUHU216HW,2013-01-24 22:55:00,
2013-01-24 18:00:00,29.4,8.1,30.43,West,270,0.0,0.0,40,0.00,,,0.00,WUHU216HW,2013-01-24 23:00:00,
2013-01-24 18:05:00,29.3,7.9,30.43,West,270,0.0,0.0,40,0.00,,,0.00,WUHU216HW,2013-01-24 23:05:00,
2013-01-24 18:10:00,29.1,8.3,30.43,West,270,0.0,0.0,41,0.00,,,0.00,WUHU216HW,2013-01-24 23:10:00,
2013-01-24 18:15:00,28.9,8.1,30.44,West,270,0.0,0.0,41,0.00,,,0.00,WUHU216HW,2013-01-24 23:15:00,
2013-01-24 18:20:00,28.7,7.9,30.44,West,270,0.0,0.0,41,0.00,,,0.00,WUHU216HW,2013-01-24 23:20:00,
2013-01-24 18:25:00,28.5,8.3,30.44,West,270,0.0,0.0,42,0.00,,,0.00,WUHU216HW,2013-01-24 23:25:00,
2013-01-24 18:30:00,28.2,7.9,30.43,West,270,0.0,0.0,42,0.00,,,0.00,WUHU216HW,2013-01-24 23:30:00,
2013-01-24 18:35:00,28.2,7.9,30.43,West,270,0.0,0.0,42,0.00,,,0.00,WUHU216HW,2013-01-24 23:35:00,
2013-01-24 18:40:00,28.0,8.3,30.44,West,270,0.0,0.0,43,0.00,,,0.00,WUHU216HW,2013-01-24 23:40:00,
2013-01-24 18:45:00,27.6,7.9,30.44,West,270,0.0,0.0,43,0.00,,,0.00,WUHU216HW,2013-01-24 23:45:00,
2013-01-24 18:50:00,27.6,7.9,30.44,West,270,0.0,0.0,43,0.00,,,0.00,WUHU216HW,2013-01-24 23:50:00,
2013-01-24 18:55:00,27.3,7.6,30.45,West,270,0.0,0.0,43,0.00,,,0.00,WUHU216HW,2013-01-24 23:55:00,
2013-01-24 19:00:00,27.1,7.9,30.44,West,270,0.0,0.0,44,0.00,,,0.00,WUHU216HW,2013-01-25 00:00:00,
2013-01-24 19:05:00,27.1,7.9,30.44,West,270,0.0,0.0,44,0.00,,,0.00,WUHU216HW,2013-01-25 00:05:00,
2013-01-24 19:10:00,26.9,8.3,30.44,West,270,0.0,0.0,45,0.00,,,0.00,WUHU216HW,2013-01-25 00:10:00,
2013-01-24 19:15:00,26.7,8.1,30.45,West,270,0.0,0.0,45,0.00,,,0.00,WUHU216HW,2013-01-25 00:15:00,
2013-01-24 19:20:00,26.6,7.9,30.45,West,270,0.0,0.0,45,0.00,,,0.00,WUHU216HW,2013-01-25 00:20:00,
2013-01-24 19:25:00,26.4,7.8,30.44,West,270,0.0,0.0,45,0.00,,,0.00,WUHU216HW,2013-01-25 00:25:00,
2013-01-24 19:30:00,26.4,8.2,30.45,West,270,0.0,0.0,46,0.00,,,0.00,WUHU216HW,2013-01-25 00:30:00,
2013-01-24 19:35:00,26.2,8.1,30.44,West,270,0.0,0.0,46,0.00,,,0.00,WUHU216HW,2013-01-25 00:35:00,
2013-01-24 19:40:00,26.2,8.1,30.44,West,270,0.0,0.0,46,0.00,,,0.00,WUHU216HW,2013-01-25 00:40:00,
2013-01-24 19:45:00,25.8,8.2,30.45,West,270,0.0,0.0,47,0.00,,,0.00,WUHU216HW,2013-01-25 00:45:00,
2013-01-24 19:50:00,25.8,8.2,30.44,West,270,0.0,0.0,47,0.00,,,0.00,WUHU216HW,2013-01-25 00:50:00,
2013-01-24 19:55:00,25.7,8.1,30.44,West,270,0.0,0.0,47,0.00,,,0.00,WUHU216HW,2013-01-25 00:55:00,
2013-01-24 20:00:00,25.5,7.9,30.44,West,270,0.0,0.0,47,0.00,,,0.00,WUHU216HW,2013-01-25 01:00:00,
2013-01-24 20:05:00,25.3,7.8,30.44,West,270,0.0,0.0,47,0.00,,,0.00,WUHU216HW,2013-01-25 01:05:00,
2013-01-24 20:10:00,25.1,7.6,30.44,West,270,0.0,0.0,47,0.00,,,0.00,WUHU216HW,2013-01-25 01:10:00,
2013-01-24 20:15:00,24.9,7.9,30.44,West,270,0.0,0.0,48,0.00,,,0.00,WUHU216HW,2013-01-25 01:15:00,
2013-01-24 20:20:00,24.9,7.9,30.44,West,270,0.0,0.0,48,0.00,,,0.00,WUHU216HW,2013-01-25 01:20:00,
2013-01-24 20:25:00,24.6,7.6,30.44,West,270,0.0,0.0,48,0.00,,,0.00,WUHU216HW,2013-01-25 01:25:00,
2013-01-24 20:30:00,24.6,7.6,30.44,West,270,0.0,0.0,48,0.00,,,0.00,WUHU216HW,2013-01-25 01:30:00,
2013-01-24 20:35:00,24.4,7.9,30.44,West,270,0.0,0.0,49,0.00,,,0.00,WUHU216HW,2013-01-25 01:35:00,
2013-01-24 20:40:00,24.4,7.9,30.44,West,270,0.0,0.0,49,0.00,,,0.00,WUHU216HW,2013-01-25 01:40:00,
2013-01-24 20:45:00,24.0,7.6,30.43,West,270,0.0,0.0,49,0.00,,,0.00,WUHU216HW,2013-01-25 01:45:00,
2013-01-24 20:50:00,24.0,7.6,30.43,West,270,0.0,0.0,49,0.00,,,0.00,WUHU216HW,2013-01-25 01:50:00,
2013-01-24 20:55:00,23.9,7.9,30.44,West,270,0.0,0.0,50,0.00,,,0.00,WUHU216HW,2013-01-25 01:55:00,
2013-01-24 21:00:00,23.7,7.8,30.43,West,270,0.0,0.0,50,0.00,,,0.00,WUHU216HW,2013-01-25 02:00:00,
2013-01-24 21:05:00,23.5,7.8,30.43,West,270,0.0,0.0,50,0.00,,,0.00,WUHU216HW,2013-01-25 02:05:00,
2013-01-24 21:10:00,23.5,7.6,30.43,West,270,0.0,0.0,50,0.00,,,0.00,WUHU216HW,2013-01-25 02:10:00,
2013-01-24 21:15:00,23.5,7.6,30.42,West,270,0.0,0.0,50,0.00,,,0.00,WUHU216HW,2013-01-25 02:15:00,
2013-01-24 21:20:00,23.3,7.4,30.43,West,270,0.0,0.0,50,0.00,,,0.00,WUHU216HW,2013-01-25 02:20:00,
2013-01-24 21:25:00,23.1,7.7,30.43,West,270,0.0,0.0,51,0.00,,,0.00,WUHU216HW,2013-01-25 02:25:00,
2013-01-24 21:30:00,23.1,7.7,30.43,West,270,0.0,0.0,51,0.00,,,0.00,WUHU216HW,2013-01-25 02:30:00,
2013-01-24 21:35:00,23.1,7.7,30.43,West,270,0.0,0.0,51,0.00,,,0.00,WUHU216HW,2013-01-25 02:35:00,
2013-01-24 21:40:00,23.0,7.5,30.43,West,270,0.0,0.0,51,0.00,,,0.00,WUHU216HW,2013-01-25 02:40:00,
2013-01-24 21:45:00,22.8,7.7,30.43,WSW,248,0.0,0.0,52,0.00,,,0.00,WUHU216HW,2013-01-25 02:45:00,
2013-01-24 21:50:00,22.8,7.7,30.43,South,180,0.0,0.0,52,0.00,,,0.00,WUHU216HW,2013-01-25 02:50:00,
2013-01-24 21:55:00,22.8,7.7,30.43,South,180,0.0,0.0,52,0.00,,,0.00,WUHU216HW,2013-01-25 02:55:00,
2013-01-24 22:00:00,22.8,8.1,30.43,South,180,0.0,0.0,53,0.00,,,0.00,WUHU216HW,2013-01-25 03:00:00,
2013-01-24 22:05:00,22.8,8.1,30.44,South,180,0.0,0.0,53,0.00,,,0.00,WUHU216HW,2013-01-25 03:05:00,
2013-01-24 22:10:00,22.8,8.1,30.44,SSE,158,0.0,0.0,53,0.00,,,0.00,WUHU216HW,2013-01-25 03:10:00,
2013-01-24 22:15:00,22.8,8.1,30.44,SSE,158,0.0,0.0,53,0.00,,,0.00,WUHU216HW,2013-01-25 03:15:00,
2013-01-24 22:20:00,23.0,8.3,30.44,SSE,158,0.0,0.0,53,0.00,,,0.00,WUHU216HW,2013-01-25 03:20:00,
2013-01-24 22:25:00,23.0,8.3,30.44,SSE,158,0.0,0.0,53,0.00,,,0.00,WUHU216HW,2013-01-25 03:25:00,
2013-01-24 22:30:00,23.1,8.5,30.43,SE,135,0.0,0.0,53,0.00,,,0.00,WUHU216HW,2013-01-25 03:30:00,
2013-01-24 22:35:00,23.1,8.5,30.43,SE,135,0.0,0.0,53,0.00,,,0.00,WUHU216HW,2013-01-25 03:35:00,
2013-01-24 22:40:00,23.3,8.6,30.44,SE,135,0.0,0.0,53,0.00,,,0.00,WUHU216HW,2013-01-25 03:40:00,
2013-01-24 22:45:00,23.3,8.6,30.44,SSE,158,0.0,0.0,53,0.00,,,0.00,WUHU216HW,2013-01-25 03:45:00,
2013-01-24 22:50:00,23.5,8.4,30.44,SSE,158,0.0,0.0,52,0.00,,,0.00,WUHU216HW,2013-01-25 03:50:00,
2013-01-24 22:55:00,23.7,8.6,30.44,East,90,0.0,0.0,52,0.00,,,0.00,WUHU216HW,2013-01-25 03:55:00,
2013-01-24 23:00:00,23.7,8.2,30.45,SSE,158,0.0,1.5,51,0.00,,,0.00,WUHU216HW,2013-01-25 04:00:00,
2013-01-24 23:05:00,23.9,8.3,30.45,SE,135,0.0,1.5,51,0.00,,,0.00,WUHU216HW,2013-01-25 04:05:00,
2013-01-24 23:10:00,24.0,8.5,30.45,SE,135,0.0,0.0,51,0.00,,,0.00,WUHU216HW,2013-01-25 04:10:00,
2013-01-24 23:15:00,24.0,8.1,30.45,SSE,158,0.0,0.0,50,0.00,,,0.00,WUHU216HW,2013-01-25 04:15:00,
2013-01-24 23:20:00,24.0,8.1,30.44,SE,135,0.0,0.0,50,0.00,,,0.00,WUHU216HW,2013-01-25 04:20:00,
2013-01-24 23:25:00,24.2,8.1,30.45,ESE,113,4.9,4.9,50,0.00,,,0.00,WUHU216HW,2013-01-25 04:25:00,
2013-01-24 23:30:00,24.2,8.2,30.44,SSE,158,5.5,5.5,50,0.00,,,0.00,WUHU216HW,2013-01-25 04:30:00,
2013-01-24 23:35:00,24.2,7.8,30.45,SSE,158,0.0,10.7,49,0.00,,,0.00,WUHU216HW,2013-01-25 04:35:00,
2013-01-24 23:40:00,24.0,8.1,30.45,South,180,5.5,10.7,50,0.00,,,0.00,WUHU216HW,2013-01-25 04:40:00,
2013-01-24 23:45:00,24.0,8.1,30.45,SE,135,0.0,5.5,50,0.00,,,0.00,WUHU216HW,2013-01-25 04:45:00,
2013-01-24 23:50:00,24.0,8.1,30.45,SSE,158,0.0,5.5,50,0.00,,,0.00,WUHU216HW,2013-01-25 04:50:00,
2013-01-24 23:55:00,24.0,8.1,30.45,SE,135,0.0,5.8,50,0.00,,,0.00,WUHU216HW,2013-01-25 04:55:00,